sensor_id;sensor_type;location;lat;lon;timestamp;P1;durP1;ratioP1;P2;durP2;ratioP2
14191;SDS011;7177;48.572;7.838;2022-07-29T00:00:10;5.67;;;3.60;;
14191;SDS011;7177;48.572;7.838;2022-07-29T00:02:36;4.23;;;3.40;;
14191;SDS011;7177;48.572;7.838;2022-07-29T00:05:02;6.80;;;3.70;;
14191;SDS011;7177;48.572;7.838;2022-07-29T00:07:29;6.70;;;3.90;;
14191;SDS011;7177;48.572;7.838;2022-07-29T00:09:54;8.03;;;4.00;;
14191;SDS011;7177;48.572;7.838;2022-07-29T00:12:20;6.40;;;4.13;;
14191;SDS011;7177;48.572;7.838;2022-07-29T00:14:48;4.87;;;4.07;;
14191;SDS011;7177;48.572;7.838;2022-07-29T00:17:15;5.03;;;3.77;;
14191;SDS011;7177;48.572;7.838;2022-07-29T00:19:41;4.73;;;3.53;;
14191;SDS011;7177;48.572;7.838;2022-07-29T00:22:06;5.57;;;3.80;;
14191;SDS011;7177;48.572;7.838;2022-07-29T00:24:32;8.50;;;3.70;;
14191;SDS011;7177;48.572;7.838;2022-07-29T00:26:57;4.83;;;4.30;;
14191;SDS011;7177;48.572;7.838;2022-07-29T00:29:23;5.43;;;4.07;;
14191;SDS011;7177;48.572;7.838;2022-07-29T00:31:48;6.03;;;4.00;;
14191;SDS011;7177;48.572;7.838;2022-07-29T00:34:14;7.63;;;4.70;;
14191;SDS011;7177;48.572;7.838;2022-07-29T00:36:58;11.07;;;4.90;;
14191;SDS011;7177;48.572;7.838;2022-07-29T00:39:23;7.33;;;4.53;;
14191;SDS011;7177;48.572;7.838;2022-07-29T00:41:49;4.90;;;4.40;;
14191;SDS011;7177;48.572;7.838;2022-07-29T00:44:15;8.23;;;4.50;;
14191;SDS011;7177;48.572;7.838;2022-07-29T00:46:41;9.20;;;4.67;;
14191;SDS011;7177;48.572;7.838;2022-07-29T00:49:06;7.10;;;4.00;;
14191;SDS011;7177;48.572;7.838;2022-07-29T00:51:32;6.60;;;4.43;;
14191;SDS011;7177;48.572;7.838;2022-07-29T00:54:00;4.43;;;4.03;;
14191;SDS011;7177;48.572;7.838;2022-07-29T00:56:26;4.80;;;4.13;;
14191;SDS011;7177;48.572;7.838;2022-07-29T00:58:55;4.80;;;4.30;;
14191;SDS011;7177;48.572;7.838;2022-07-29T01:01:22;9.30;;;4.97;;
14191;SDS011;7177;48.572;7.838;2022-07-29T01:03:48;5.53;;;4.40;;
14191;SDS011;7177;48.572;7.838;2022-07-29T01:06:14;6.60;;;4.83;;
14191;SDS011;7177;48.572;7.838;2022-07-29T01:08:43;7.23;;;4.50;;
14191;SDS011;7177;48.572;7.838;2022-07-29T01:11:10;6.93;;;4.90;;
14191;SDS011;7177;48.572;7.838;2022-07-29T01:13:37;8.00;;;5.13;;
14191;SDS011;7177;48.572;7.838;2022-07-29T01:16:04;7.13;;;5.30;;
14191;SDS011;7177;48.572;7.838;2022-07-29T01:18:37;9.83;;;5.57;;
14191;SDS011;7177;48.572;7.838;2022-07-29T01:26:38;7.40;;;5.97;;
14191;SDS011;7177;48.572;7.838;2022-07-29T01:29:28;11.53;;;6.10;;
14191;SDS011;7177;48.572;7.838;2022-07-29T01:37:23;11.77;;;6.90;;
14191;SDS011;7177;48.572;7.838;2022-07-29T01:39:54;6.77;;;5.90;;
14191;SDS011;7177;48.572;7.838;2022-07-29T01:42:35;8.73;;;7.10;;
14191;SDS011;7177;48.572;7.838;2022-07-29T01:47:37;6.63;;;5.90;;
14191;SDS011;7177;48.572;7.838;2022-07-29T01:50:07;6.87;;;6.20;;
14191;SDS011;7177;48.572;7.838;2022-07-29T01:52:38;7.90;;;6.47;;
14191;SDS011;7177;48.572;7.838;2022-07-29T01:55:14;8.97;;;6.30;;
14191;SDS011;7177;48.572;7.838;2022-07-29T01:57:43;7.23;;;6.37;;
14191;SDS011;7177;48.572;7.838;2022-07-29T02:00:11;9.97;;;6.43;;
14191;SDS011;7177;48.572;7.838;2022-07-29T02:02:39;7.90;;;5.93;;
14191;SDS011;7177;48.572;7.838;2022-07-29T02:05:07;6.47;;;5.57;;
14191;SDS011;7177;48.572;7.838;2022-07-29T02:07:35;6.67;;;5.97;;
14191;SDS011;7177;48.572;7.838;2022-07-29T02:10:03;7.83;;;6.17;;
14191;SDS011;7177;48.572;7.838;2022-07-29T02:12:30;8.97;;;6.70;;
14191;SDS011;7177;48.572;7.838;2022-07-29T02:14:57;7.63;;;6.83;;
14191;SDS011;7177;48.572;7.838;2022-07-29T02:17:27;9.07;;;7.07;;
14191;SDS011;7177;48.572;7.838;2022-07-29T02:19:59;7.47;;;6.67;;
14191;SDS011;7177;48.572;7.838;2022-07-29T02:22:26;8.57;;;7.67;;
14191;SDS011;7177;48.572;7.838;2022-07-29T02:24:56;11.33;;;7.57;;
14191;SDS011;7177;48.572;7.838;2022-07-29T02:27:23;9.57;;;8.57;;
14191;SDS011;7177;48.572;7.838;2022-07-29T02:29:49;8.50;;;7.30;;
14191;SDS011;7177;48.572;7.838;2022-07-29T02:32:17;9.07;;;7.60;;
14191;SDS011;7177;48.572;7.838;2022-07-29T02:34:46;8.67;;;7.50;;
14191;SDS011;7177;48.572;7.838;2022-07-29T02:37:12;8.40;;;7.10;;
14191;SDS011;7177;48.572;7.838;2022-07-29T02:39:42;9.00;;;7.77;;
14191;SDS011;7177;48.572;7.838;2022-07-29T02:42:10;7.77;;;6.97;;
14191;SDS011;7177;48.572;7.838;2022-07-29T02:44:38;7.30;;;6.60;;
14191;SDS011;7177;48.572;7.838;2022-07-29T02:47:10;8.00;;;7.17;;
14191;SDS011;7177;48.572;7.838;2022-07-29T02:49:45;13.97;;;8.83;;
14191;SDS011;7177;48.572;7.838;2022-07-29T02:55:21;7.20;;;6.50;;
14191;SDS011;7177;48.572;7.838;2022-07-29T02:57:51;7.83;;;7.03;;
14191;SDS011;7177;48.572;7.838;2022-07-29T03:00:23;10.27;;;6.93;;
14191;SDS011;7177;48.572;7.838;2022-07-29T03:02:52;9.00;;;6.60;;
14191;SDS011;7177;48.572;7.838;2022-07-29T03:05:20;10.20;;;7.17;;
14191;SDS011;7177;48.572;7.838;2022-07-29T03:07:49;7.83;;;7.00;;
14191;SDS011;7177;48.572;7.838;2022-07-29T03:10:19;8.47;;;7.27;;
14191;SDS011;7177;48.572;7.838;2022-07-29T03:12:45;8.93;;;8.03;;
14191;SDS011;7177;48.572;7.838;2022-07-29T03:15:13;11.50;;;7.83;;
14191;SDS011;7177;48.572;7.838;2022-07-29T03:17:39;10.33;;;7.17;;
14191;SDS011;7177;48.572;7.838;2022-07-29T03:20:06;9.37;;;7.50;;
14191;SDS011;7177;48.572;7.838;2022-07-29T03:22:33;8.53;;;7.70;;
14191;SDS011;7177;48.572;7.838;2022-07-29T03:25:12;7.97;;;7.17;;
14191;SDS011;7177;48.572;7.838;2022-07-29T03:27:39;9.00;;;8.10;;
14191;SDS011;7177;48.572;7.838;2022-07-29T03:30:05;8.27;;;7.30;;
14191;SDS011;7177;48.572;7.838;2022-07-29T03:32:32;9.10;;;6.97;;
14191;SDS011;7177;48.572;7.838;2022-07-29T03:34:58;8.53;;;7.63;;
14191;SDS011;7177;48.572;7.838;2022-07-29T03:37:24;9.57;;;7.50;;
14191;SDS011;7177;48.572;7.838;2022-07-29T03:39:49;10.80;;;6.97;;
14191;SDS011;7177;48.572;7.838;2022-07-29T03:42:17;9.13;;;7.60;;
14191;SDS011;7177;48.572;7.838;2022-07-29T03:44:46;8.47;;;7.67;;
14191;SDS011;7177;48.572;7.838;2022-07-29T03:47:13;7.90;;;6.80;;
14191;SDS011;7177;48.572;7.838;2022-07-29T03:49:40;7.30;;;6.57;;
14191;SDS011;7177;48.572;7.838;2022-07-29T03:52:07;7.90;;;7.07;;
14191;SDS011;7177;48.572;7.838;2022-07-29T03:54:33;9.33;;;7.63;;
14191;SDS011;7177;48.572;7.838;2022-07-29T03:56:59;10.87;;;7.73;;
14191;SDS011;7177;48.572;7.838;2022-07-29T03:59:26;8.43;;;7.40;;
14191;SDS011;7177;48.572;7.838;2022-07-29T04:01:52;7.97;;;7.13;;
14191;SDS011;7177;48.572;7.838;2022-07-29T04:04:20;9.67;;;8.40;;
14191;SDS011;7177;48.572;7.838;2022-07-29T04:06:46;12.30;;;8.97;;
14191;SDS011;7177;48.572;7.838;2022-07-29T04:09:12;9.10;;;7.87;;
14191;SDS011;7177;48.572;7.838;2022-07-29T04:11:38;8.97;;;7.93;;
14191;SDS011;7177;48.572;7.838;2022-07-29T04:14:04;8.37;;;7.00;;
14191;SDS011;7177;48.572;7.838;2022-07-29T04:16:30;9.30;;;7.87;;
14191;SDS011;7177;48.572;7.838;2022-07-29T04:18:56;10.20;;;8.20;;
14191;SDS011;7177;48.572;7.838;2022-07-29T04:21:21;12.50;;;7.77;;
14191;SDS011;7177;48.572;7.838;2022-07-29T04:23:47;8.27;;;7.00;;
14191;SDS011;7177;48.572;7.838;2022-07-29T04:26:15;11.30;;;7.77;;
14191;SDS011;7177;48.572;7.838;2022-07-29T04:28:44;10.63;;;7.07;;
14191;SDS011;7177;48.572;7.838;2022-07-29T04:31:10;9.70;;;6.67;;
14191;SDS011;7177;48.572;7.838;2022-07-29T04:33:36;9.27;;;7.33;;
14191;SDS011;7177;48.572;7.838;2022-07-29T04:36:02;7.87;;;6.53;;
14191;SDS011;7177;48.572;7.838;2022-07-29T04:38:28;7.87;;;6.83;;
14191;SDS011;7177;48.572;7.838;2022-07-29T04:40:53;9.40;;;7.23;;
14191;SDS011;7177;48.572;7.838;2022-07-29T04:43:19;10.03;;;6.67;;
14191;SDS011;7177;48.572;7.838;2022-07-29T04:45:44;7.10;;;6.40;;
14191;SDS011;7177;48.572;7.838;2022-07-29T04:48:10;9.40;;;7.40;;
14191;SDS011;7177;48.572;7.838;2022-07-29T04:50:37;8.77;;;7.43;;
14191;SDS011;7177;48.572;7.838;2022-07-29T04:53:04;10.00;;;7.33;;
14191;SDS011;7177;48.572;7.838;2022-07-29T04:55:30;12.17;;;8.10;;
14191;SDS011;7177;48.572;7.838;2022-07-29T04:57:55;8.53;;;7.73;;
14191;SDS011;7177;48.572;7.838;2022-07-29T05:00:21;9.03;;;7.13;;
14191;SDS011;7177;48.572;7.838;2022-07-29T05:02:48;10.90;;;7.40;;
14191;SDS011;7177;48.572;7.838;2022-07-29T05:05:13;9.93;;;7.70;;
14191;SDS011;7177;48.572;7.838;2022-07-29T05:07:39;7.87;;;7.03;;
14191;SDS011;7177;48.572;7.838;2022-07-29T05:10:05;8.97;;;6.70;;
14191;SDS011;7177;48.572;7.838;2022-07-29T05:12:30;10.60;;;7.80;;
14191;SDS011;7177;48.572;7.838;2022-07-29T05:14:56;11.30;;;7.57;;
14191;SDS011;7177;48.572;7.838;2022-07-29T05:17:21;10.87;;;8.80;;
14191;SDS011;7177;48.572;7.838;2022-07-29T05:19:47;10.33;;;8.13;;
14191;SDS011;7177;48.572;7.838;2022-07-29T05:22:12;7.93;;;7.13;;
14191;SDS011;7177;48.572;7.838;2022-07-29T05:24:38;10.07;;;7.90;;
14191;SDS011;7177;48.572;7.838;2022-07-29T05:27:03;8.50;;;7.57;;
14191;SDS011;7177;48.572;7.838;2022-07-29T05:29:29;9.93;;;7.83;;
14191;SDS011;7177;48.572;7.838;2022-07-29T05:31:54;8.47;;;7.33;;
14191;SDS011;7177;48.572;7.838;2022-07-29T05:34:20;11.17;;;8.27;;
14191;SDS011;7177;48.572;7.838;2022-07-29T05:36:45;9.53;;;8.50;;
14191;SDS011;7177;48.572;7.838;2022-07-29T05:39:11;11.47;;;8.60;;
14191;SDS011;7177;48.572;7.838;2022-07-29T05:41:38;12.83;;;8.37;;
14191;SDS011;7177;48.572;7.838;2022-07-29T05:44:03;11.50;;;7.87;;
14191;SDS011;7177;48.572;7.838;2022-07-29T05:46:29;15.23;;;8.27;;
14191;SDS011;7177;48.572;7.838;2022-07-29T05:48:55;10.07;;;7.63;;
14191;SDS011;7177;48.572;7.838;2022-07-29T05:51:21;9.37;;;7.97;;
14191;SDS011;7177;48.572;7.838;2022-07-29T05:53:46;10.67;;;8.60;;
14191;SDS011;7177;48.572;7.838;2022-07-29T05:56:12;9.90;;;8.17;;
14191;SDS011;7177;48.572;7.838;2022-07-29T05:58:37;10.43;;;7.37;;
14191;SDS011;7177;48.572;7.838;2022-07-29T06:01:03;9.67;;;8.00;;
14191;SDS011;7177;48.572;7.838;2022-07-29T06:03:28;8.40;;;7.60;;
14191;SDS011;7177;48.572;7.838;2022-07-29T06:05:54;9.23;;;7.20;;
14191;SDS011;7177;48.572;7.838;2022-07-29T06:08:19;8.83;;;6.87;;
14191;SDS011;7177;48.572;7.838;2022-07-29T06:10:45;10.17;;;6.67;;
14191;SDS011;7177;48.572;7.838;2022-07-29T06:13:11;9.20;;;6.10;;
14191;SDS011;7177;48.572;7.838;2022-07-29T06:15:37;7.80;;;6.10;;
14191;SDS011;7177;48.572;7.838;2022-07-29T06:18:03;6.10;;;5.60;;
14191;SDS011;7177;48.572;7.838;2022-07-29T06:20:29;7.70;;;5.97;;
14191;SDS011;7177;48.572;7.838;2022-07-29T06:22:55;7.97;;;5.37;;
14191;SDS011;7177;48.572;7.838;2022-07-29T06:25:21;5.00;;;4.50;;
14191;SDS011;7177;48.572;7.838;2022-07-29T06:27:47;5.80;;;4.60;;
14191;SDS011;7177;48.572;7.838;2022-07-29T06:30:12;7.60;;;4.90;;
14191;SDS011;7177;48.572;7.838;2022-07-29T06:32:38;10.30;;;6.70;;
14191;SDS011;7177;48.572;7.838;2022-07-29T06:35:04;7.33;;;6.30;;
14191;SDS011;7177;48.572;7.838;2022-07-29T06:37:30;10.33;;;6.40;;
14191;SDS011;7177;48.572;7.838;2022-07-29T06:39:56;8.80;;;6.70;;
14191;SDS011;7177;48.572;7.838;2022-07-29T06:42:53;10.00;;;6.27;;
14191;SDS011;7177;48.572;7.838;2022-07-29T06:45:19;6.40;;;5.70;;
14191;SDS011;7177;48.572;7.838;2022-07-29T06:47:44;8.30;;;5.50;;
14191;SDS011;7177;48.572;7.838;2022-07-29T06:50:10;7.90;;;5.97;;
14191;SDS011;7177;48.572;7.838;2022-07-29T06:52:38;5.80;;;5.20;;
14191;SDS011;7177;48.572;7.838;2022-07-29T06:55:05;6.80;;;4.70;;
14191;SDS011;7177;48.572;7.838;2022-07-29T06:57:31;10.20;;;4.53;;
14191;SDS011;7177;48.572;7.838;2022-07-29T06:59:57;8.63;;;4.53;;
14191;SDS011;7177;48.572;7.838;2022-07-29T07:02:22;5.43;;;4.30;;
14191;SDS011;7177;48.572;7.838;2022-07-29T07:04:48;4.93;;;4.27;;
14191;SDS011;7177;48.572;7.838;2022-07-29T07:07:14;5.63;;;4.53;;
14191;SDS011;7177;48.572;7.838;2022-07-29T07:09:39;8.90;;;4.23;;
14191;SDS011;7177;48.572;7.838;2022-07-29T07:12:05;8.03;;;4.00;;
14191;SDS011;7177;48.572;7.838;2022-07-29T07:14:31;4.83;;;3.80;;
14191;SDS011;7177;48.572;7.838;2022-07-29T07:16:56;6.73;;;3.57;;
14191;SDS011;7177;48.572;7.838;2022-07-29T07:19:22;3.97;;;3.57;;
14191;SDS011;7177;48.572;7.838;2022-07-29T07:21:48;7.90;;;3.40;;
14191;SDS011;7177;48.572;7.838;2022-07-29T07:24:13;7.13;;;3.50;;
14191;SDS011;7177;48.572;7.838;2022-07-29T07:26:39;7.20;;;3.90;;
14191;SDS011;7177;48.572;7.838;2022-07-29T07:29:05;9.30;;;4.07;;
14191;SDS011;7177;48.572;7.838;2022-07-29T07:31:30;7.13;;;3.80;;
14191;SDS011;7177;48.572;7.838;2022-07-29T07:33:56;4.43;;;3.50;;
14191;SDS011;7177;48.572;7.838;2022-07-29T07:36:22;6.87;;;3.30;;
14191;SDS011;7177;48.572;7.838;2022-07-29T07:38:48;5.33;;;3.67;;
14191;SDS011;7177;48.572;7.838;2022-07-29T07:41:13;4.90;;;3.40;;
14191;SDS011;7177;48.572;7.838;2022-07-29T07:43:39;8.50;;;3.60;;
14191;SDS011;7177;48.572;7.838;2022-07-29T07:46:04;6.23;;;3.70;;
14191;SDS011;7177;48.572;7.838;2022-07-29T07:48:30;4.97;;;4.17;;
14191;SDS011;7177;48.572;7.838;2022-07-29T07:50:56;10.90;;;4.00;;
14191;SDS011;7177;48.572;7.838;2022-07-29T07:53:21;5.80;;;3.87;;
14191;SDS011;7177;48.572;7.838;2022-07-29T07:55:47;4.73;;;3.63;;
14191;SDS011;7177;48.572;7.838;2022-07-29T07:58:12;8.77;;;4.00;;
14191;SDS011;7177;48.572;7.838;2022-07-29T08:00:38;9.20;;;4.63;;
14191;SDS011;7177;48.572;7.838;2022-07-29T08:03:03;17.87;;;4.67;;
14191;SDS011;7177;48.572;7.838;2022-07-29T08:05:29;9.47;;;4.30;;
14191;SDS011;7177;48.572;7.838;2022-07-29T08:07:55;8.43;;;4.23;;
14191;SDS011;7177;48.572;7.838;2022-07-29T08:10:20;6.67;;;3.90;;
14191;SDS011;7177;48.572;7.838;2022-07-29T08:13:06;12.33;;;4.40;;
14191;SDS011;7177;48.572;7.838;2022-07-29T08:15:32;7.77;;;4.43;;
14191;SDS011;7177;48.572;7.838;2022-07-29T08:17:58;6.53;;;3.70;;
14191;SDS011;7177;48.572;7.838;2022-07-29T08:20:23;12.30;;;4.90;;
14191;SDS011;7177;48.572;7.838;2022-07-29T08:22:49;9.43;;;4.00;;
14191;SDS011;7177;48.572;7.838;2022-07-29T08:25:15;7.57;;;4.27;;
14191;SDS011;7177;48.572;7.838;2022-07-29T08:27:42;7.97;;;4.17;;
14191;SDS011;7177;48.572;7.838;2022-07-29T08:30:08;6.63;;;3.97;;
14191;SDS011;7177;48.572;7.838;2022-07-29T08:32:35;6.43;;;4.03;;
14191;SDS011;7177;48.572;7.838;2022-07-29T08:35:01;5.10;;;3.70;;
14191;SDS011;7177;48.572;7.838;2022-07-29T08:37:26;11.33;;;4.33;;
14191;SDS011;7177;48.572;7.838;2022-07-29T08:39:52;8.57;;;4.33;;
14191;SDS011;7177;48.572;7.838;2022-07-29T08:42:17;6.77;;;4.20;;
14191;SDS011;7177;48.572;7.838;2022-07-29T08:44:43;10.23;;;4.40;;
14191;SDS011;7177;48.572;7.838;2022-07-29T08:47:08;11.10;;;3.97;;
14191;SDS011;7177;48.572;7.838;2022-07-29T08:49:34;6.40;;;3.90;;
14191;SDS011;7177;48.572;7.838;2022-07-29T08:52:01;4.47;;;3.70;;
14191;SDS011;7177;48.572;7.838;2022-07-29T08:54:27;4.73;;;3.50;;
14191;SDS011;7177;48.572;7.838;2022-07-29T08:56:53;7.57;;;3.63;;
14191;SDS011;7177;48.572;7.838;2022-07-29T08:59:20;5.10;;;3.30;;
14191;SDS011;7177;48.572;7.838;2022-07-29T09:01:50;4.90;;;3.27;;
14191;SDS011;7177;48.572;7.838;2022-07-29T09:04:17;10.70;;;4.00;;
14191;SDS011;7177;48.572;7.838;2022-07-29T09:06:45;4.43;;;3.10;;
14191;SDS011;7177;48.572;7.838;2022-07-29T09:09:12;9.53;;;3.20;;
14191;SDS011;7177;48.572;7.838;2022-07-29T09:11:39;11.47;;;3.30;;
14191;SDS011;7177;48.572;7.838;2022-07-29T09:14:05;6.20;;;3.60;;
14191;SDS011;7177;48.572;7.838;2022-07-29T09:16:43;9.70;;;4.00;;
14191;SDS011;7177;48.572;7.838;2022-07-29T09:19:20;8.77;;;4.10;;
14191;SDS011;7177;48.572;7.838;2022-07-29T09:21:50;5.83;;;3.80;;
14191;SDS011;7177;48.572;7.838;2022-07-29T09:24:23;5.23;;;3.10;;
14191;SDS011;7177;48.572;7.838;2022-07-29T09:27:10;4.57;;;3.23;;
14191;SDS011;7177;48.572;7.838;2022-07-29T09:29:41;5.70;;;3.23;;
14191;SDS011;7177;48.572;7.838;2022-07-29T09:32:09;9.23;;;3.40;;
14191;SDS011;7177;48.572;7.838;2022-07-29T09:34:36;5.83;;;3.50;;
14191;SDS011;7177;48.572;7.838;2022-07-29T09:37:02;18.50;;;3.43;;
14191;SDS011;7177;48.572;7.838;2022-07-29T09:39:28;6.30;;;3.30;;
14191;SDS011;7177;48.572;7.838;2022-07-29T09:41:55;5.67;;;3.03;;
14191;SDS011;7177;48.572;7.838;2022-07-29T09:44:21;5.33;;;2.97;;
14191;SDS011;7177;48.572;7.838;2022-07-29T09:47:01;9.00;;;3.43;;
14191;SDS011;7177;48.572;7.838;2022-07-29T09:49:32;4.63;;;2.97;;
14191;SDS011;7177;48.572;7.838;2022-07-29T09:52:00;6.97;;;3.13;;
14191;SDS011;7177;48.572;7.838;2022-07-29T09:54:33;4.13;;;3.00;;
14191;SDS011;7177;48.572;7.838;2022-07-29T09:57:02;7.73;;;3.10;;
14191;SDS011;7177;48.572;7.838;2022-07-29T09:59:29;4.83;;;2.67;;
14191;SDS011;7177;48.572;7.838;2022-07-29T10:01:55;7.33;;;3.10;;
14191;SDS011;7177;48.572;7.838;2022-07-29T10:04:21;9.10;;;2.90;;
14191;SDS011;7177;48.572;7.838;2022-07-29T10:06:56;4.13;;;2.77;;
14191;SDS011;7177;48.572;7.838;2022-07-29T10:09:26;5.30;;;3.27;;
14191;SDS011;7177;48.572;7.838;2022-07-29T10:12:08;6.73;;;2.70;;
14191;SDS011;7177;48.572;7.838;2022-07-29T10:14:36;7.83;;;3.00;;
14191;SDS011;7177;48.572;7.838;2022-07-29T10:17:04;6.67;;;2.70;;
14191;SDS011;7177;48.572;7.838;2022-07-29T10:19:31;5.03;;;2.80;;
14191;SDS011;7177;48.572;7.838;2022-07-29T10:21:58;5.37;;;2.83;;
14191;SDS011;7177;48.572;7.838;2022-07-29T10:24:25;5.17;;;3.00;;
14191;SDS011;7177;48.572;7.838;2022-07-29T10:26:52;7.93;;;2.63;;
14191;SDS011;7177;48.572;7.838;2022-07-29T10:29:19;3.80;;;2.60;;
14191;SDS011;7177;48.572;7.838;2022-07-29T10:31:50;4.60;;;2.50;;
14191;SDS011;7177;48.572;7.838;2022-07-29T10:40:15;2.93;;;2.30;;
14191;SDS011;7177;48.572;7.838;2022-07-29T10:43:04;6.23;;;3.20;;
14191;SDS011;7177;48.572;7.838;2022-07-29T10:45:55;5.07;;;3.10;;
14191;SDS011;7177;48.572;7.838;2022-07-29T10:48:22;8.43;;;3.53;;
14191;SDS011;7177;48.572;7.838;2022-07-29T10:50:55;6.67;;;2.70;;
14191;SDS011;7177;48.572;7.838;2022-07-29T10:53:46;6.33;;;2.63;;
14191;SDS011;7177;48.572;7.838;2022-07-29T10:56:23;2.93;;;2.40;;
14191;SDS011;7177;48.572;7.838;2022-07-29T11:01:44;8.77;;;2.93;;
14191;SDS011;7177;48.572;7.838;2022-07-29T11:04:10;5.70;;;2.63;;
14191;SDS011;7177;48.572;7.838;2022-07-29T11:09:30;7.70;;;2.20;;
14191;SDS011;7177;48.572;7.838;2022-07-29T11:11:56;8.10;;;2.10;;
14191;SDS011;7177;48.572;7.838;2022-07-29T11:17:19;4.07;;;2.33;;
14191;SDS011;7177;48.572;7.838;2022-07-29T11:19:45;2.83;;;2.30;;
14191;SDS011;7177;48.572;7.838;2022-07-29T11:22:10;7.53;;;2.80;;
14191;SDS011;7177;48.572;7.838;2022-07-29T11:24:36;6.57;;;2.20;;
14191;SDS011;7177;48.572;7.838;2022-07-29T11:27:09;3.90;;;2.27;;
14191;SDS011;7177;48.572;7.838;2022-07-29T11:29:40;4.03;;;2.33;;
14191;SDS011;7177;48.572;7.838;2022-07-29T11:32:15;3.17;;;2.23;;
14191;SDS011;7177;48.572;7.838;2022-07-29T11:34:43;3.80;;;2.50;;
14191;SDS011;7177;48.572;7.838;2022-07-29T11:39:39;2.83;;;2.27;;
14191;SDS011;7177;48.572;7.838;2022-07-29T11:45:00;6.37;;;3.20;;
14191;SDS011;7177;48.572;7.838;2022-07-29T11:47:27;4.23;;;2.50;;
14191;SDS011;7177;48.572;7.838;2022-07-29T11:49:55;6.47;;;2.63;;
14191;SDS011;7177;48.572;7.838;2022-07-29T11:52:22;3.53;;;2.43;;
14191;SDS011;7177;48.572;7.838;2022-07-29T11:54:49;5.33;;;2.93;;
14191;SDS011;7177;48.572;7.838;2022-07-29T11:57:15;5.30;;;3.57;;
14191;SDS011;7177;48.572;7.838;2022-07-29T11:59:43;6.13;;;2.83;;
14191;SDS011;7177;48.572;7.838;2022-07-29T12:02:10;4.90;;;3.30;;
14191;SDS011;7177;48.572;7.838;2022-07-29T12:04:51;8.33;;;3.30;;
14191;SDS011;7177;48.572;7.838;2022-07-29T12:07:25;7.07;;;3.67;;
14191;SDS011;7177;48.572;7.838;2022-07-29T12:09:55;8.87;;;3.30;;
14191;SDS011;7177;48.572;7.838;2022-07-29T12:12:21;7.10;;;3.20;;
14191;SDS011;7177;48.572;7.838;2022-07-29T12:14:47;8.63;;;3.20;;
14191;SDS011;7177;48.572;7.838;2022-07-29T12:17:25;8.27;;;3.50;;
14191;SDS011;7177;48.572;7.838;2022-07-29T12:19:52;4.07;;;3.03;;
14191;SDS011;7177;48.572;7.838;2022-07-29T12:22:25;5.87;;;3.50;;
14191;SDS011;7177;48.572;7.838;2022-07-29T12:25:00;9.27;;;3.83;;
14191;SDS011;7177;48.572;7.838;2022-07-29T12:27:34;8.87;;;3.87;;
14191;SDS011;7177;48.572;7.838;2022-07-29T12:30:02;9.30;;;3.63;;
14191;SDS011;7177;48.572;7.838;2022-07-29T12:32:36;3.87;;;3.10;;
14191;SDS011;7177;48.572;7.838;2022-07-29T12:35:08;3.97;;;3.27;;
14191;SDS011;7177;48.572;7.838;2022-07-29T12:37:39;6.90;;;3.50;;
14191;SDS011;7177;48.572;7.838;2022-07-29T12:40:07;3.93;;;3.17;;
14191;SDS011;7177;48.572;7.838;2022-07-29T12:42:34;5.97;;;3.20;;
14191;SDS011;7177;48.572;7.838;2022-07-29T12:45:00;3.57;;;2.97;;
14191;SDS011;7177;48.572;7.838;2022-07-29T12:47:26;7.07;;;3.43;;
14191;SDS011;7177;48.572;7.838;2022-07-29T12:50:07;8.13;;;3.40;;
14191;SDS011;7177;48.572;7.838;2022-07-29T12:52:34;5.10;;;3.67;;
14191;SDS011;7177;48.572;7.838;2022-07-29T12:55:00;6.17;;;3.50;;
14191;SDS011;7177;48.572;7.838;2022-07-29T12:57:27;4.77;;;3.47;;
14191;SDS011;7177;48.572;7.838;2022-07-29T12:59:59;5.13;;;3.50;;
14191;SDS011;7177;48.572;7.838;2022-07-29T13:02:32;6.20;;;3.00;;
14191;SDS011;7177;48.572;7.838;2022-07-29T13:04:59;4.17;;;2.80;;
14191;SDS011;7177;48.572;7.838;2022-07-29T13:07:26;5.30;;;3.87;;
14191;SDS011;7177;48.572;7.838;2022-07-29T13:15:34;6.60;;;3.23;;
14191;SDS011;7177;48.572;7.838;2022-07-29T13:18:01;4.03;;;2.90;;
14191;SDS011;7177;48.572;7.838;2022-07-29T13:20:27;3.67;;;3.10;;
14191;SDS011;7177;48.572;7.838;2022-07-29T13:22:57;4.50;;;3.53;;
14191;SDS011;7177;48.572;7.838;2022-07-29T13:25:24;4.83;;;2.87;;
14191;SDS011;7177;48.572;7.838;2022-07-29T13:27:51;11.13;;;3.73;;
14191;SDS011;7177;48.572;7.838;2022-07-29T13:30:19;5.03;;;3.20;;
14191;SDS011;7177;48.572;7.838;2022-07-29T13:32:45;3.40;;;3.10;;
14191;SDS011;7177;48.572;7.838;2022-07-29T13:35:11;5.27;;;3.33;;
14191;SDS011;7177;48.572;7.838;2022-07-29T13:37:37;7.30;;;3.13;;
14191;SDS011;7177;48.572;7.838;2022-07-29T13:40:06;9.70;;;3.23;;
14191;SDS011;7177;48.572;7.838;2022-07-29T13:42:32;5.53;;;3.40;;
14191;SDS011;7177;48.572;7.838;2022-07-29T13:44:58;10.80;;;3.27;;
14191;SDS011;7177;48.572;7.838;2022-07-29T13:47:24;7.47;;;3.30;;
14191;SDS011;7177;48.572;7.838;2022-07-29T13:49:50;7.00;;;2.90;;
14191;SDS011;7177;48.572;7.838;2022-07-29T13:52:16;7.23;;;3.40;;
14191;SDS011;7177;48.572;7.838;2022-07-29T13:54:42;5.70;;;3.37;;
14191;SDS011;7177;48.572;7.838;2022-07-29T13:57:08;5.80;;;2.90;;
14191;SDS011;7177;48.572;7.838;2022-07-29T13:59:38;5.13;;;2.73;;
14191;SDS011;7177;48.572;7.838;2022-07-29T14:02:04;5.47;;;2.90;;
14191;SDS011;7177;48.572;7.838;2022-07-29T14:04:30;4.77;;;3.13;;
14191;SDS011;7177;48.572;7.838;2022-07-29T14:06:56;9.60;;;3.00;;
14191;SDS011;7177;48.572;7.838;2022-07-29T14:09:21;7.63;;;3.13;;
14191;SDS011;7177;48.572;7.838;2022-07-29T14:11:47;5.60;;;3.03;;
14191;SDS011;7177;48.572;7.838;2022-07-29T14:14:14;6.07;;;3.03;;
14191;SDS011;7177;48.572;7.838;2022-07-29T14:16:40;6.30;;;2.83;;
14191;SDS011;7177;48.572;7.838;2022-07-29T14:19:05;11.20;;;2.90;;
14191;SDS011;7177;48.572;7.838;2022-07-29T14:21:31;11.03;;;3.00;;
14191;SDS011;7177;48.572;7.838;2022-07-29T14:23:57;9.70;;;2.77;;
14191;SDS011;7177;48.572;7.838;2022-07-29T14:26:23;5.13;;;3.00;;
14191;SDS011;7177;48.572;7.838;2022-07-29T14:28:48;3.70;;;2.40;;
14191;SDS011;7177;48.572;7.838;2022-07-29T14:31:15;6.80;;;2.80;;
14191;SDS011;7177;48.572;7.838;2022-07-29T14:33:40;5.97;;;2.80;;
14191;SDS011;7177;48.572;7.838;2022-07-29T14:36:06;7.30;;;2.97;;
14191;SDS011;7177;48.572;7.838;2022-07-29T14:38:32;5.73;;;3.03;;
14191;SDS011;7177;48.572;7.838;2022-07-29T14:40:58;2.57;;;2.37;;
14191;SDS011;7177;48.572;7.838;2022-07-29T14:43:23;5.90;;;2.80;;
14191;SDS011;7177;48.572;7.838;2022-07-29T14:45:49;7.23;;;2.93;;
14191;SDS011;7177;48.572;7.838;2022-07-29T14:48:14;9.30;;;3.00;;
14191;SDS011;7177;48.572;7.838;2022-07-29T14:50:40;5.73;;;2.50;;
14191;SDS011;7177;48.572;7.838;2022-07-29T14:53:05;5.73;;;2.53;;
14191;SDS011;7177;48.572;7.838;2022-07-29T14:55:31;9.47;;;2.67;;
14191;SDS011;7177;48.572;7.838;2022-07-29T14:57:57;3.87;;;2.60;;
14191;SDS011;7177;48.572;7.838;2022-07-29T15:00:23;3.80;;;2.43;;
14191;SDS011;7177;48.572;7.838;2022-07-29T15:02:49;5.37;;;2.40;;
14191;SDS011;7177;48.572;7.838;2022-07-29T15:05:15;3.43;;;2.47;;
14191;SDS011;7177;48.572;7.838;2022-07-29T15:07:41;3.63;;;2.83;;
14191;SDS011;7177;48.572;7.838;2022-07-29T15:10:06;4.83;;;2.80;;
14191;SDS011;7177;48.572;7.838;2022-07-29T15:12:32;3.73;;;2.80;;
14191;SDS011;7177;48.572;7.838;2022-07-29T15:14:58;5.10;;;2.50;;
14191;SDS011;7177;48.572;7.838;2022-07-29T15:17:23;5.67;;;2.70;;
14191;SDS011;7177;48.572;7.838;2022-07-29T15:19:49;3.77;;;2.50;;
14191;SDS011;7177;48.572;7.838;2022-07-29T15:22:15;5.20;;;2.73;;
14191;SDS011;7177;48.572;7.838;2022-07-29T15:24:40;5.80;;;2.60;;
14191;SDS011;7177;48.572;7.838;2022-07-29T15:27:06;5.83;;;2.60;;
14191;SDS011;7177;48.572;7.838;2022-07-29T15:29:31;5.50;;;2.67;;
14191;SDS011;7177;48.572;7.838;2022-07-29T15:31:57;9.40;;;2.87;;
14191;SDS011;7177;48.572;7.838;2022-07-29T15:34:23;7.30;;;3.03;;
14191;SDS011;7177;48.572;7.838;2022-07-29T15:36:51;3.93;;;2.50;;
14191;SDS011;7177;48.572;7.838;2022-07-29T15:39:17;4.87;;;2.70;;
14191;SDS011;7177;48.572;7.838;2022-07-29T15:41:43;5.93;;;2.73;;
14191;SDS011;7177;48.572;7.838;2022-07-29T15:44:09;6.20;;;2.57;;